Search for airport 
image banner adimage banner adimage banner ad
image banner ad

06U - Jackpot/Hayden Field

Located in Jackpot, United States

ICAO - 06U, IATA -

Data provided by Airmate  

General information

Coordinates: N41°58'33" W114°39'29"
Elevation is 5224 feet MSL.
Magnetic variation is 16° East
View others Airports in Nevada

Operational data

Special qualification required
Current time UTC:
Current local time:
METAR: KTWF 092153Z 29009G23KT 10SM BKN075 14/M05 A3004 RMK AO2 SLP152 T01391050
TAF: KTWF 091720Z 0918/1018 29012G20KT P6SM BKN080 FM100300 21010KT P6SM FEW080 FM101600 27010KT P6SM SCT080 BKN120
View NOTAMs / SUP AIP / TFR affecting this airport [VIEW]
Communications frequencies: [VIEW]

Runways:

RWY identifierQFULength (ft)Width (ft)SurfaceLDA (ft)
15618360ASPH
33618360ASPH

Airport contact information

Address: Jackpot United States

Satellite view of 06U